地図

経路データ

SID SEASON NUMBER BASIN SUBBASIN NAME ISO_TIME NATURE LAT LON WMO_WIND WMO_PRES WMO_AGENCY TRACK_TYPE DIST2LAND LANDFALL IFLAG USA_AGENCY USA_ATCF_ID USA_LAT USA_LON USA_RECORD USA_STATUS USA_WIND USA_PRES USA_SSHS USA_R34_NE USA_R34_SE USA_R34_SW USA_R34_NW USA_R50_NE USA_R50_SE USA_R50_SW USA_R50_NW USA_R64_NE USA_R64_SE USA_R64_SW USA_R64_NW USA_POCI USA_ROCI USA_RMW USA_EYE TOKYO_LAT TOKYO_LON TOKYO_GRADE TOKYO_WIND TOKYO_PRES TOKYO_R50_DIR TOKYO_R50_LONG TOKYO_R50_SHORT TOKYO_R30_DIR TOKYO_R30_LONG TOKYO_R30_SHORT TOKYO_LAND CMA_LAT CMA_LON CMA_CAT CMA_WIND CMA_PRES HKO_LAT HKO_LON HKO_CAT HKO_WIND HKO_PRES NEWDELHI_LAT NEWDELHI_LON NEWDELHI_GRADE NEWDELHI_WIND NEWDELHI_PRES NEWDELHI_CI NEWDELHI_DP NEWDELHI_POCI REUNION_LAT REUNION_LON REUNION_TYPE REUNION_WIND REUNION_PRES REUNION_TNUM REUNION_CI REUNION_RMW REUNION_R34_NE REUNION_R34_SE REUNION_R34_SW REUNION_R34_NW REUNION_R50_NE REUNION_R50_SE REUNION_R50_SW REUNION_R50_NW REUNION_R64_NE REUNION_R64_SE REUNION_R64_SW REUNION_R64_NW BOM_LAT BOM_LON BOM_TYPE BOM_WIND BOM_PRES BOM_TNUM BOM_CI BOM_RMW BOM_R34_NE BOM_R34_SE BOM_R34_SW BOM_R34_NW BOM_R50_NE BOM_R50_SE BOM_R50_SW BOM_R50_NW BOM_R64_NE BOM_R64_SE BOM_R64_SW BOM_R64_NW BOM_ROCI BOM_POCI BOM_EYE BOM_POS_METHOD BOM_PRES_METHOD NADI_LAT NADI_LON NADI_CAT NADI_WIND NADI_PRES WELLINGTON_LAT WELLINGTON_LON WELLINGTON_WIND WELLINGTON_PRES DS824_LAT DS824_LON DS824_STAGE DS824_WIND DS824_PRES TD9636_LAT TD9636_LON TD9636_STAGE TD9636_WIND TD9636_PRES TD9635_LAT TD9635_LON TD9635_WIND TD9635_PRES TD9635_ROCI NEUMANN_LAT NEUMANN_LON NEUMANN_CLASS NEUMANN_WIND NEUMANN_PRES MLC_LAT MLC_LON MLC_CLASS MLC_WIND MLC_PRES USA_GUST BOM_GUST BOM_GUST_PER REUNION_GUST REUNION_GUST_PER USA_SEAHGT USA_SEARAD_NE USA_SEARAD_SE USA_SEARAD_SW USA_SEARAD_NW STORM_SPEED STORM_DIR
1966265N10325 1966 87 NA NA INEZ 1966-09-21 12:00:00 TS 9.90000 -35.1000 25 hurdat_atl main 1525 1522 O_____________ hurdat_atl AL091966 9.90000 -35.1000 TD 25 -1 11 297
1966265N10325 1966 87 NA NA INEZ 1966-09-21 15:00:00 TS 10.1476 -35.5899 main 1529 1529 P_____________ AL091966 10.1476 -35.5899 TD 25 -1 11 297
1966265N10325 1966 87 NA NA INEZ 1966-09-21 18:00:00 TS 10.4000 -36.1000 25 hurdat_atl main 1545 1542 O_____________ hurdat_atl AL091966 10.4000 -36.1000 TD 25 -1 12 296
1966265N10325 1966 87 NA NA INEZ 1966-09-21 21:00:00 TS 10.6574 -36.6425 main 1564 1559 P_____________ AL091966 10.6574 -36.6425 TD 25 -1 12 295
1966265N10325 1966 87 NA NA INEZ 1966-09-22 00:00:00 TS 10.9000 -37.2000 25 hurdat_atl main 1572 1570 O_____________ hurdat_atl AL091966 10.9000 -37.2000 TD 25 -1 12 292
1966265N10325 1966 87 NA NA INEZ 1966-09-22 03:00:00 TS 11.1074 -37.7501 main 1584 1584 P_____________ AL091966 11.1074 -37.7501 TD 25 -1 12 290
1966265N10325 1966 87 NA NA INEZ 1966-09-22 06:00:00 TS 11.3000 -38.3000 25 hurdat_atl main 1599 1595 O_____________ hurdat_atl AL091966 11.3000 -38.3000 TD 25 -1 11 290
1966265N10325 1966 87 NA NA INEZ 1966-09-22 09:00:00 TS 11.5074 -38.8425 main 1595 1550 P_____________ AL091966 11.5074 -38.8425 TD 25 -1 12 290
1966265N10325 1966 87 NA NA INEZ 1966-09-22 12:00:00 TS 11.7000 -39.4000 25 hurdat_atl main 1550 1501 O_____________ hurdat_atl AL091966 11.7000 -39.4000 TD 25 -1 12 287
1966265N10325 1966 87 NA NA INEZ 1966-09-22 15:00:00 TS 11.8574 -39.9926 main 1507 1459 P_____________ AL091966 11.8574 -39.9926 TD 25 -1 12 284
1966265N10325 1966 87 NA NA INEZ 1966-09-22 18:00:00 TS 12.0000 -40.6000 25 hurdat_atl main 1459 1413 O_____________ hurdat_atl AL091966 12.0000 -40.6000 TD 25 -1 12 284
1966265N10325 1966 87 NA NA INEZ 1966-09-22 21:00:00 TS 12.1424 -41.2001 main 1413 1376 P_____________ AL091966 12.1424 -41.2001 TD 25 -1 12 284
1966265N10325 1966 87 NA NA INEZ 1966-09-23 00:00:00 TS 12.3000 -41.8000 25 hurdat_atl main 1376 1342 O_____________ hurdat_atl AL091966 12.3000 -41.8000 TD 25 -1 12 287
1966265N10325 1966 87 NA NA INEZ 1966-09-23 03:00:00 TS 12.4924 -42.4075 main 1342 1310 P_____________ AL091966 12.4924 -42.4075 TD 25 -1 12 289
1966265N10325 1966 87 NA NA INEZ 1966-09-23 06:00:00 TS 12.7000 -43.0000 25 hurdat_atl main 1310 1288 O_____________ hurdat_atl AL091966 12.7000 -43.0000 TD 25 -1 12 290
1966265N10325 1966 87 NA NA INEZ 1966-09-23 09:00:00 TS 12.9074 -43.5650 main 1282 1262 P_____________ AL091966 12.9074 -43.5650 TD 27 -1 11 290
1966265N10325 1966 87 NA NA INEZ 1966-09-23 12:00:00 TS 13.1000 -44.1000 30 hurdat_atl main 1264 1239 O_____________ hurdat_atl AL091966 13.1000 -44.1000 TD 30 -1 11 289
1966265N10325 1966 87 NA NA INEZ 1966-09-23 15:00:00 TS 13.2574 -44.6151 main 1248 1225 P_____________ AL091966 13.2574 -44.6151 TD 30 -1 10 287
1966265N10325 1966 87 NA NA INEZ 1966-09-23 18:00:00 TS 13.4000 -45.1000 30 hurdat_atl main 1225 1211 O_____________ hurdat_atl AL091966 13.4000 -45.1000 TD 30 -1 10 288
1966265N10325 1966 87 NA NA INEZ 1966-09-23 21:00:00 TS 13.5499 -45.5576 main 1205 1195 P_____________ AL091966 13.5499 -45.5576 TD 30 -1 9 289
1966265N10325 1966 87 NA NA INEZ 1966-09-24 00:00:00 TS 13.7000 -46.0000 30 hurdat_atl main 1195 1179 O_____________ hurdat_atl AL091966 13.7000 -46.0000 TD 30 -1 9 289
1966265N10325 1966 87 NA NA INEZ 1966-09-24 03:00:00 TS 13.8424 -46.4426 main 1179 1167 P_____________ AL091966 13.8424 -46.4426 TD 30 -1 9 289
1966265N10325 1966 87 NA NA INEZ 1966-09-24 06:00:00 TS 14.0000 -46.9000 30 hurdat_atl main 1167 1153 O_____________ hurdat_atl AL091966 14.0000 -46.9000 TD 30 -1 10 291
1966265N10325 1966 87 NA NA INEZ 1966-09-24 09:00:00 TS 14.1924 -47.3925 main 1157 1146 P_____________ AL091966 14.1924 -47.3925 TD 32 -1 11 292
1966265N10325 1966 87 NA NA INEZ 1966-09-24 12:00:00 TS 14.4000 -47.9000 35 1009 hurdat_atl main 1151 1146 O_____________ hurdat_atl AL091966 14.4000 -47.9000 TS 35 1009 0 11 293
1966265N10325 1966 87 NA NA INEZ 1966-09-24 15:00:00 TS 14.6074 -48.4075 main 1147 1140 P_____________ AL091966 14.6074 -48.4075 TS 37 1008 0 10 292
1966265N10325 1966 87 NA NA INEZ 1966-09-24 18:00:00 TS 14.8000 -48.9000 40 1008 hurdat_atl main 1146 1141 O_____________ hurdat_atl AL091966 14.8000 -48.9000 TS 40 1008 0 10 291
1966265N10325 1966 87 NA NA INEZ 1966-09-24 21:00:00 TS 14.9649 -49.3576 main 1146 1136 P_____________ AL091966 14.9649 -49.3576 TS 42 0 9 289
1966265N10325 1966 87 NA NA INEZ 1966-09-25 00:00:00 TS 15.1000 -49.8000 45 hurdat_atl main 1137 1128 O_____________ hurdat_atl AL091966 15.1000 -49.8000 TS 45 0 9 286
1966265N10325 1966 87 NA NA INEZ 1966-09-25 03:00:00 TS 15.2074 -50.2501 main 1125 1117 P_____________ AL091966 15.2074 -50.2501 TS 47 0 9 283
1966265N10325 1966 87 NA NA INEZ 1966-09-25 06:00:00 TS 15.3000 -50.7000 50 hurdat_atl main 1120 1112 O_____________ hurdat_atl AL091966 15.3000 -50.7000 TS 50 0 9 283
1966265N10325 1966 87 NA NA INEZ 1966-09-25 09:00:00 TS 15.4074 -51.1500 main 1116 1110 P_____________ AL091966 15.4074 -51.1500 TS 50 0 9 283
1966265N10325 1966 87 NA NA INEZ 1966-09-25 12:00:00 TS 15.5000 -51.6000 50 1000 hurdat_atl main 1112 1104 O_____________ hurdat_atl AL091966 15.5000 -51.6000 TS 50 1000 0 9 280
1966265N10325 1966 87 NA NA INEZ 1966-09-25 15:00:00 TS 15.5648 -52.0350 main 1112 1071 P_____________ AL091966 15.5648 -52.0350 TS 50 1000 0 9 277
1966265N10325 1966 87 NA NA INEZ 1966-09-25 18:00:00 TS 15.6000 -52.5000 50 1000 hurdat_atl main 1071 1025 O_____________ hurdat_atl AL091966 15.6000 -52.5000 TS 50 1000 0 10 272
1966265N10325 1966 87 NA NA INEZ 1966-09-25 21:00:00 TS 15.5999 -53.0276 main 1025 971 P_____________ AL091966 15.5999 -53.0276 TS 52 0 11 270
1966265N10325 1966 87 NA NA INEZ 1966-09-26 00:00:00 TS 15.6000 -53.6000 55 hurdat_atl main 971 918 O_____________ hurdat_atl AL091966 15.6000 -53.6000 TS 55 0 11 272
1966265N10325 1966 87 NA NA INEZ 1966-09-26 03:00:00 TS 15.6424 -54.1925 main 918 874 P_____________ AL091966 15.6424 -54.1925 TS 57 0 12 275
1966265N10325 1966 87 NA NA INEZ 1966-09-26 06:00:00 TS 15.7000 -54.8000 60 hurdat_atl main 874 825 O_____________ hurdat_atl AL091966 15.7000 -54.8000 TS 60 0 12 275
1966265N10325 1966 87 NA NA INEZ 1966-09-26 09:00:00 TS 15.7500 -55.4150 main 825 786 P_____________ AL091966 15.7500 -55.4150 TS 62 0 12 275
1966265N10325 1966 87 NA NA INEZ 1966-09-26 12:00:00 TS 15.8000 -56.0000 65 995 hurdat_atl main 786 757 O_____________ hurdat_atl AL091966 15.8000 -56.0000 HU 65 995 1 11 276
1966265N10325 1966 87 NA NA INEZ 1966-09-26 15:00:00 TS 15.8573 -56.5150 main 759 725 P_____________ AL091966 15.8573 -56.5150 HU 72 988 1 10 276
1966265N10325 1966 87 NA NA INEZ 1966-09-26 18:00:00 TS 15.9000 -57.0000 80 982 hurdat_atl main 725 694 O_____________ hurdat_atl AL091966 15.9000 -57.0000 HU 80 982 1 9 273
1966265N10325 1966 87 NA NA INEZ 1966-09-26 21:00:00 TS 15.8998 -57.4926 main 694 666 P_____________ AL091966 15.8998 -57.4926 HU 85 977 2 10 270
1966265N10325 1966 87 NA NA INEZ 1966-09-27 00:00:00 TS 15.9000 -58.0000 90 hurdat_atl main 666 642 I_____________ hurdat_atl AL091966 15.9000 -58.0000 HU 90 973 2 10 272
1966265N10325 1966 87 NA NA INEZ 1966-09-27 03:00:00 TS 15.9424 -58.5350 main 642 628 P_____________ AL091966 15.9424 -58.5350 HU 95 969 2 11 275
1966265N10325 1966 87 NA NA INEZ 1966-09-27 06:00:00 TS 16.0000 -59.1000 100 965 hurdat_atl main 628 612 O_____________ hurdat_atl AL091966 16.0000 -59.1000 HU 100 965 3 11 276
1966265N10325 1966 87 NA NA INEZ 1966-09-27 09:00:00 TS 16.0480 -59.6631 main 609 609 P_____________ AL091966 16.0480 -59.6631 HU 102 963 3 12 275
1966265N10325 1966 87 NA CS INEZ 1966-09-27 12:00:00 TS 16.1000 -60.3000 105 961 hurdat_atl main 609 527 O_____________ hurdat_atl AL091966 16.1000 -60.3000 HU 105 961 3 15 275
1966265N10325 1966 87 NA CS INEZ 1966-09-27 15:00:00 TS 16.1738 -61.1799 main 518 480 P_____________ AL091966 16.1738 -61.1799 HU 107 961 3 15 275
1966265N10325 1966 87 NA CS INEZ 1966-09-27 17:00:00 TS 16.2000 -61.6000 110 961 hurdat_atl main 480 470 O_____________ hurdat_atl AL091966 16.2000 -61.6000 L HU 110 961 3 10 273
1966265N10325 1966 87 NA CS INEZ 1966-09-27 18:00:00 TS 16.2000 -61.7000 110 958 hurdat_atl main 470 409 O_____________ hurdat_atl AL091966 16.2000 -61.7000 HU 110 958 3 10 278
1966265N10325 1966 87 NA CS INEZ 1966-09-27 21:00:00 TS 16.3000 -62.3000 95 971 hurdat_atl main 409 348 O_____________ hurdat_atl AL091966 16.3000 -62.3000 R HU 95 971 2 13 275
1966265N10325 1966 87 NA CS INEZ 1966-09-28 00:00:00 TS 16.3000 -63.0000 100 964 hurdat_atl main 348 285 O_____________ hurdat_atl AL091966 16.3000 -63.0000 HU 100 964 3 14 273
1966265N10325 1966 87 NA CS INEZ 1966-09-28 03:00:00 TS 16.3726 -63.7068 main 285 224 P_____________ AL091966 16.3726 -63.7068 HU 107 959 3 14 278
1966265N10325 1966 87 NA CS INEZ 1966-09-28 06:00:00 TS 16.5000 -64.4000 115 955 hurdat_atl main 224 178 O_____________ hurdat_atl AL091966 16.5000 -64.4000 HU 115 955 4 13 282
1966265N10325 1966 87 NA CS INEZ 1966-09-28 09:00:00 TS 16.6496 -65.0425 main 178 134 P_____________ AL091966 16.6496 -65.0425 HU 122 948 4 13 284
1966265N10325 1966 87 NA CS INEZ 1966-09-28 12:00:00 TS 16.8000 -65.7000 130 hurdat_atl main 134 111 I_____________ hurdat_atl AL091966 16.8000 -65.7000 HU 130 941 4 14 281
1966265N10325 1966 87 NA CS INEZ 1966-09-28 15:00:00 TS 16.9150 -66.4500 main 116 100 P_____________ AL091966 16.9150 -66.4500 HU 137 934 5 15 278
1966265N10325 1966 87 NA CS INEZ 1966-09-28 18:00:00 TS 17.0000 -67.2000 145 927 hurdat_atl main 100 100 O_____________ hurdat_atl AL091966 17.0000 -67.2000 HU 145 927 5 14 276
1966265N10325 1966 87 NA CS INEZ 1966-09-28 21:00:00 TS 17.0572 -67.8726 main 116 116 P_____________ AL091966 17.0572 -67.8726 HU 145 927 5 12 275
1966265N10325 1966 87 NA CS INEZ 1966-09-29 00:00:00 TS 17.1000 -68.5000 145 928 hurdat_atl main 123 123 O_____________ hurdat_atl AL091966 17.1000 -68.5000 HU 145 928 5 12 274
1966265N10325 1966 87 NA CS INEZ 1966-09-29 03:00:00 TS 17.1347 -69.1002 main 127 123 P_____________ AL091966 17.1347 -69.1002 HU 145 5 12 275
1966265N10325 1966 87 NA CS INEZ 1966-09-29 06:00:00 TS 17.2000 -69.7000 145 hurdat_atl main 123 100 O_____________ hurdat_atl AL091966 17.2000 -69.7000 HU 145 5 12 278
1966265N10325 1966 87 NA CS INEZ 1966-09-29 09:00:00 TS 17.3021 -70.3553 main 100 43 P_____________ AL091966 17.3021 -70.3553 HU 145 5 13 284
1966265N10325 1966 87 NA CS INEZ 1966-09-29 12:00:00 TS 17.5000 -71.0000 145 hurdat_atl main 43 0 O_____________ hurdat_atl AL091966 17.5000 -71.0000 HU 145 5 13 292
1966265N10325 1966 87 NA CS INEZ 1966-09-29 14:00:00 TS 17.7000 -71.4000 145 hurdat_atl main 0 0 O_____________ hurdat_atl AL091966 17.7000 -71.4000 L HU 145 5 13 298
1966265N10325 1966 87 NA CS INEZ 1966-09-29 15:00:00 TS 17.7999 -71.5987 main 0 0 P_____________ AL091966 17.7999 -71.5987 HU 133 4 14 295
1966265N10325 1966 87 NA CS INEZ 1966-09-29 18:00:00 TS 18.1000 -72.3000 100 hurdat_atl main 11 0 O_____________ hurdat_atl AL091966 18.1000 -72.3000 HU 100 3 16 293
1966265N10325 1966 87 NA CS INEZ 1966-09-29 19:00:00 TS 18.2000 -72.6000 100 hurdat_atl main 0 0 O_____________ hurdat_atl AL091966 18.2000 -72.6000 L HU 100 3 15 293
1966265N10325 1966 87 NA NA INEZ 1966-09-29 21:00:00 TS 18.4034 -73.0481 main 0 0 P_____________ AL091966 18.4034 -73.0481 HU 91 2 12 300
1966265N10325 1966 87 NA CS INEZ 1966-09-30 00:00:00 TS 18.7000 -73.5000 80 987 hurdat_atl main 30 24 O_____________ hurdat_atl AL091966 18.7000 -73.5000 HU 80 987 1 11 301
1966265N10325 1966 87 NA CS INEZ 1966-09-30 03:00:00 TS 18.9508 -74.0142 main 44 44 P_____________ AL091966 18.9508 -74.0142 HU 85 2 11 298
1966265N10325 1966 87 NA CS INEZ 1966-09-30 06:00:00 TS 19.2000 -74.5000 90 hurdat_atl main 67 45 O_____________ hurdat_atl AL091966 19.2000 -74.5000 HU 90 2 10 301
1966265N10325 1966 87 NA CS INEZ 1966-09-30 09:00:00 TS 19.4934 -74.9566 main 44 11 P_____________ AL091966 19.4934 -74.9566 HU 95 2 10 305
1966265N10325 1966 87 NA CS INEZ 1966-09-30 12:00:00 TS 19.8000 -75.4000 100 hurdat_atl main 11 0 O_____________ hurdat_atl AL091966 19.8000 -75.4000 HU 100 3 10 306
1966265N10325 1966 87 NA NA INEZ 1966-09-30 14:00:00 TS 20.0000 -75.7000 100 hurdat_atl main 0 0 O_____________ hurdat_atl AL091966 20.0000 -75.7000 L HU 100 3 10 303
1966265N10325 1966 87 NA NA INEZ 1966-09-30 15:00:00 TS 20.0701 -75.8501 main 0 0 P_____________ AL091966 20.0701 -75.8501 HU 95 2 9 290
1966265N10325 1966 87 NA NA INEZ 1966-09-30 18:00:00 TS 20.2000 -76.3000 80 hurdat_atl main 0 0 O_____________ hurdat_atl AL091966 20.2000 -76.3000 HU 80 1 9 289
1966265N10325 1966 87 NA NA INEZ 1966-09-30 21:00:00 TS 20.3569 -76.7359 main 0 0 P_____________ AL091966 20.3569 -76.7359 HU 72 1 9 290
1966265N10325 1966 87 NA CS INEZ 1966-10-01 00:00:00 TS 20.5000 -77.2000 65 hurdat_atl main 0 0 O_____________ hurdat_atl AL091966 20.5000 -77.2000 HU 65 1 10 283
1966265N10325 1966 87 NA CS INEZ 1966-10-01 03:00:00 TS 20.5775 -77.7429 main 11 10 P_____________ AL091966 20.5775 -77.7429 HU 65 1 10 281
1966265N10325 1966 87 NA CS INEZ 1966-10-01 06:00:00 TS 20.7000 -78.3000 65 hurdat_atl main 22 22 O_____________ hurdat_atl AL091966 20.7000 -78.3000 HU 65 1 11 291
1966265N10325 1966 87 NA CS INEZ 1966-10-01 09:00:00 TS 20.9728 -78.8678 main 41 24 P_____________ AL091966 20.9728 -78.8678 HU 65 1 11 303
1966265N10325 1966 87 NA CS INEZ 1966-10-01 12:00:00 TS 21.3000 -79.3000 65 hurdat_atl main 24 0 O_____________ hurdat_atl AL091966 21.3000 -79.3000 HU 65 1 9 317
1966265N10325 1966 87 NA CS INEZ 1966-10-01 15:00:00 TS 21.6000 -79.5000 65 hurdat_atl main 0 0 O_____________ hurdat_atl AL091966 21.6000 -79.5000 L HU 65 1 9 321
1966265N10325 1966 87 NA NA INEZ 1966-10-01 18:00:00 TS 22.0000 -79.9000 60 hurdat_atl main 0 0 O_____________ hurdat_atl AL091966 22.0000 -79.9000 TS 60 0 9 324
1966265N10325 1966 87 NA NA INEZ 1966-10-01 21:00:00 TS 22.3271 -80.0753 main 0 0 P_____________ AL091966 22.3271 -80.0753 TS 55 0 6 343
1966265N10325 1966 87 NA NA INEZ 1966-10-02 00:00:00 TS 22.6000 -80.1000 50 hurdat_atl main 0 0 O_____________ hurdat_atl AL091966 22.6000 -80.1000 TS 50 0 5 354
1966265N10325 1966 87 NA NA INEZ 1966-10-02 03:00:00 TS 22.8650 -80.1300 main 0 0 P_____________ AL091966 22.8650 -80.1300 TS 50 0 5 2
1966265N10325 1966 87 NA NA INEZ 1966-10-02 06:00:00 TS 23.1000 -80.1000 50 hurdat_atl main 22 22 O_____________ hurdat_atl AL091966 23.1000 -80.1000 TS 50 0 4 13
1966265N10325 1966 87 NA NA INEZ 1966-10-02 09:00:00 TS 23.2925 -80.0224 main 44 44 P_____________ AL091966 23.2925 -80.0224 TS 50 0 4 25
1966265N10325 1966 87 NA NA INEZ 1966-10-02 12:00:00 TS 23.5000 -79.9000 50 hurdat_atl main 67 67 O_____________ hurdat_atl AL091966 23.5000 -79.9000 TS 50 0 6 25
1966265N10325 1966 87 NA NA INEZ 1966-10-02 15:00:00 TS 23.8000 -79.7650 main 102 102 P_____________ AL091966 23.8000 -79.7650 TS 52 0 7 25
1966265N10325 1966 87 NA NA INEZ 1966-10-02 18:00:00 TS 24.1000 -79.6000 55 999 hurdat_atl main 124 97 O_____________ hurdat_atl AL091966 24.1000 -79.6000 TS 55 999 0 6 33
1966265N10325 1966 87 NA NA INEZ 1966-10-02 21:00:00 TS 24.3150 -79.3999 main 97 71 P_____________ AL091966 24.3150 -79.3999 TS 57 997 0 5 42
1966265N10325 1966 87 NA NA INEZ 1966-10-03 00:00:00 TS 24.5000 -79.2000 60 995 hurdat_atl main 71 60 O_____________ hurdat_atl AL091966 24.5000 -79.2000 TS 60 995 0 5 40
1966265N10325 1966 87 NA NA INEZ 1966-10-03 03:00:00 TS 24.7075 -79.0424 main 51 46 P_____________ AL091966 24.7075 -79.0424 TS 60 992 0 5 34
1966265N10325 1966 87 NA NA INEZ 1966-10-03 06:00:00 TS 24.9000 -78.9000 60 989 hurdat_atl main 52 46 O_____________ hurdat_atl AL091966 24.9000 -78.9000 TS 60 989 0 4 39
1966265N10325 1966 87 NA NA INEZ 1966-10-03 09:00:00 TS 25.0575 -78.7350 main 52 45 P_____________ AL091966 25.0575 -78.7350 TS 62 987 0 4 42
1966265N10325 1966 87 NA NA INEZ 1966-10-03 12:00:00 TS 25.2000 -78.6000 65 985 hurdat_atl main 51 46 O_____________ hurdat_atl AL091966 25.2000 -78.6000 HU 65 985 1 4 31
1966265N10325 1966 87 NA NA INEZ 1966-10-03 15:00:00 TS 25.3725 -78.5275 main 52 52 P_____________ AL091966 25.3725 -78.5275 HU 65 985 1 3 16
1966265N10325 1966 87 NA NA INEZ 1966-10-03 18:00:00 TS 25.5000 -78.5000 65 986 hurdat_atl main 60 60 O_____________ hurdat_atl AL091966 25.5000 -78.5000 HU 65 986 1 2 23
1966265N10325 1966 87 NA NA INEZ 1966-10-03 21:00:00 TS 25.5224 -78.4550 main 60 60 P_____________ AL091966 25.5224 -78.4550 HU 65 985 1 0 0
1966265N10325 1966 87 NA NA INEZ 1966-10-04 00:00:00 TS 25.5000 -78.5000 65 985 hurdat_atl main 60 60 O_____________ hurdat_atl AL091966 25.5000 -78.5000 HU 65 985 1 2 270
1966265N10325 1966 87 NA NA INEZ 1966-10-04 03:00:00 TS 25.5225 -78.7048 main 75 75 P_____________ AL091966 25.5225 -78.7048 HU 65 986 1 5 270
1966265N10325 1966 87 NA NA INEZ 1966-10-04 06:00:00 TS 25.5000 -79.0000 65 988 hurdat_atl main 100 91 O_____________ hurdat_atl AL091966 25.5000 -79.0000 HU 65 988 1 5 253
1966265N10325 1966 87 NA NA INEZ 1966-10-04 09:00:00 TS 25.3648 -79.2701 main 91 77 P_____________ AL091966 25.3648 -79.2701 HU 70 987 1 6 241
1966265N10325 1966 87 NA NA INEZ 1966-10-04 12:00:00 TS 25.2000 -79.6000 75 987 hurdat_atl main 77 40 O_____________ hurdat_atl AL091966 25.2000 -79.6000 HU 75 987 1 7 249
1966265N10325 1966 87 NA NA INEZ 1966-10-04 15:00:00 TS 25.1059 -80.0229 main 40 10 P_____________ AL091966 25.1059 -80.0229 HU 80 985 1 8 256
1966265N10325 1966 87 NA NA INEZ 1966-10-04 18:00:00 TS 25.0000 -80.5000 85 984 hurdat_atl main 15 11 O_____________ hurdat_atl AL091966 25.0000 -80.5000 L HU 85 984 2 9 254
1966265N10325 1966 87 NA NA INEZ 1966-10-04 21:00:00 TS 24.8543 -81.0203 main 24 24 P_____________ AL091966 24.8543 -81.0203 HU 85 986 2 9 248
1966265N10325 1966 87 NA NA INEZ 1966-10-04 23:00:00 TS 24.7000 -81.3000 85 988 hurdat_atl main 49 49 O_____________ hurdat_atl AL091966 24.7000 -81.3000 L HU 85 988 2 9 234
1966265N10325 1966 87 NA NA INEZ 1966-10-05 00:00:00 TS 24.6000 -81.4000 85 988 hurdat_atl main 63 63 O_____________ hurdat_atl AL091966 24.6000 -81.4000 HU 85 988 2 9 258
1966265N10325 1966 87 NA NA INEZ 1966-10-05 02:00:00 TS 24.6000 -81.8000 85 988 hurdat_atl main 90 90 O_____________ hurdat_atl AL091966 24.6000 -81.8000 L HU 85 988 2 10 268
1966265N10325 1966 87 NA NA INEZ 1966-10-05 03:00:00 TS 24.5823 -81.9561 main 104 104 P_____________ AL091966 24.5823 -81.9561 HU 85 987 2 7 258
1966265N10325 1966 87 NA NA INEZ 1966-10-05 06:00:00 TS 24.5000 -82.3000 85 985 hurdat_atl main 135 135 O_____________ hurdat_atl AL091966 24.5000 -82.3000 HU 85 985 2 6 263
1966265N10325 1966 87 NA NA INEZ 1966-10-05 09:00:00 TS 24.5004 -82.6544 main 157 157 P_____________ AL091966 24.5004 -82.6544 HU 85 983 2 6 270
1966265N10325 1966 87 NA GM INEZ 1966-10-05 12:00:00 TS 24.5000 -83.0000 85 hurdat_atl main 164 164 I_____________ hurdat_atl AL091966 24.5000 -83.0000 HU 85 982 2 6 263
1966265N10325 1966 87 NA GM INEZ 1966-10-05 15:00:00 TS 24.4225 -83.3575 main 167 157 P_____________ AL091966 24.4225 -83.3575 HU 85 981 2 7 253
1966265N10325 1966 87 NA GM INEZ 1966-10-05 18:00:00 TS 24.3000 -83.7000 85 980 hurdat_atl main 159 150 O_____________ hurdat_atl AL091966 24.3000 -83.7000 HU 85 980 2 6 246
1966265N10325 1966 87 NA GM INEZ 1966-10-05 21:00:00 TS 24.1573 -83.9999 main 157 143 P_____________ AL091966 24.1573 -83.9999 HU 87 978 2 6 241
1966265N10325 1966 87 NA GM INEZ 1966-10-06 00:00:00 TS 24.0000 -84.3000 90 977 hurdat_atl main 147 140 O_____________ hurdat_atl AL091966 24.0000 -84.3000 HU 90 977 2 7 243
1966265N10325 1966 87 NA GM INEZ 1966-10-06 03:00:00 TS 23.8575 -84.6424 main 147 142 P_____________ AL091966 23.8575 -84.6424 HU 92 975 2 7 245
1966265N10325 1966 87 NA GM INEZ 1966-10-06 06:00:00 TS 23.7000 -85.0000 95 974 hurdat_atl main 151 150 O_____________ hurdat_atl AL091966 23.7000 -85.0000 HU 95 974 2 7 242
1966265N10325 1966 87 NA GM INEZ 1966-10-06 09:00:00 TS 23.5149 -85.3499 main 158 158 P_____________ AL091966 23.5149 -85.3499 HU 95 974 2 8 238
1966265N10325 1966 87 NA GM INEZ 1966-10-06 12:00:00 TS 23.3000 -85.7000 95 974 hurdat_atl main 172 162 O_____________ hurdat_atl AL091966 23.3000 -85.7000 HU 95 974 2 8 234
1966265N10325 1966 87 NA GM INEZ 1966-10-06 15:00:00 TS 23.0574 -86.0424 main 168 157 P_____________ AL091966 23.0574 -86.0424 HU 95 974 2 8 232
1966265N10325 1966 87 NA GM INEZ 1966-10-06 18:00:00 TS 22.8000 -86.4000 95 974 hurdat_atl main 157 113 O_____________ hurdat_atl AL091966 22.8000 -86.4000 HU 95 974 2 9 233
1966265N10325 1966 87 NA GM INEZ 1966-10-06 21:00:00 TS 22.5349 -86.7850 main 113 89 P_____________ AL091966 22.5349 -86.7850 HU 100 967 3 9 236
1966265N10325 1966 87 NA GM INEZ 1966-10-07 00:00:00 TS 22.3000 -87.2000 105 961 hurdat_atl main 90 67 O_____________ hurdat_atl AL091966 22.3000 -87.2000 HU 105 961 3 9 243
1966265N10325 1966 87 NA GM INEZ 1966-10-07 03:00:00 TS 22.1274 -87.6424 main 67 55 P_____________ AL091966 22.1274 -87.6424 HU 105 3 9 250
1966265N10325 1966 87 NA GM INEZ 1966-10-07 06:00:00 TS 22.0000 -88.1000 105 hurdat_atl main 55 44 O_____________ hurdat_atl AL091966 22.0000 -88.1000 HU 105 3 9 254
1966265N10325 1966 87 NA GM INEZ 1966-10-07 09:00:00 TS 21.8923 -88.5424 main 44 39 P_____________ AL091966 21.8923 -88.5424 HU 102 3 9 257
1966265N10325 1966 87 NA GM INEZ 1966-10-07 12:00:00 TS 21.8000 -89.0000 100 hurdat_atl main 49 44 O_____________ hurdat_atl AL091966 21.8000 -89.0000 HU 100 3 9 257
1966265N10325 1966 87 NA GM INEZ 1966-10-07 15:00:00 TS 21.6924 -89.4925 main 49 44 P_____________ AL091966 21.6924 -89.4925 HU 92 2 10 258
1966265N10325 1966 87 NA GM INEZ 1966-10-07 18:00:00 TS 21.6000 -90.0000 85 972 hurdat_atl main 45 45 O_____________ hurdat_atl AL091966 21.6000 -90.0000 HU 85 972 2 9 260
1966265N10325 1966 87 NA GM INEZ 1966-10-07 21:00:00 TS 21.5348 -90.4925 main 49 49 P_____________ AL091966 21.5348 -90.4925 HU 90 2 9 264
1966265N10325 1966 87 NA GM INEZ 1966-10-08 00:00:00 TS 21.5000 -91.0000 95 hurdat_atl main 85 85 O_____________ hurdat_atl AL091966 21.5000 -91.0000 HU 95 2 10 266
1966265N10325 1966 87 NA GM INEZ 1966-10-08 03:00:00 TS 21.4700 -91.5502 main 141 141 P_____________ AL091966 21.4700 -91.5502 HU 100 3 10 270
1966265N10325 1966 87 NA GM INEZ 1966-10-08 06:00:00 TS 21.5000 -92.1000 105 hurdat_atl main 191 191 O_____________ hurdat_atl AL091966 21.5000 -92.1000 HU 105 3 10 279
1966265N10325 1966 87 NA GM INEZ 1966-10-08 09:00:00 TS 21.6349 -92.6223 main 244 244 P_____________ AL091966 21.6349 -92.6223 HU 110 3 10 288
1966265N10325 1966 87 NA GM INEZ 1966-10-08 12:00:00 TS 21.8000 -93.1000 115 953 hurdat_atl main 300 300 O_____________ hurdat_atl AL091966 21.8000 -93.1000 HU 115 953 4 9 288
1966265N10325 1966 87 NA GM INEZ 1966-10-08 15:00:00 TS 21.9073 -93.5152 main 342 342 P_____________ AL091966 21.9073 -93.5152 HU 115 954 4 8 285
1966265N10325 1966 87 NA GM INEZ 1966-10-08 18:00:00 TS 22.0000 -93.9000 115 956 hurdat_atl main 350 314 O_____________ hurdat_atl AL091966 22.0000 -93.9000 HU 115 956 4 8 283
1966265N10325 1966 87 NA GM INEZ 1966-10-08 21:00:00 TS 22.0850 -94.3226 main 314 276 P_____________ AL091966 22.0850 -94.3226 HU 115 952 4 8 285
1966265N10325 1966 87 NA GM INEZ 1966-10-09 00:00:00 TS 22.2000 -94.7000 115 948 hurdat_atl main 276 253 O_____________ hurdat_atl AL091966 22.2000 -94.7000 HU 115 948 4 7 298
1966265N10325 1966 87 NA GM INEZ 1966-10-09 03:00:00 TS 22.4074 -94.9799 main 253 243 P_____________ AL091966 22.4074 -94.9799 HU 115 949 4 6 311
1966265N10325 1966 87 NA GM INEZ 1966-10-09 06:00:00 TS 22.6000 -95.2000 115 951 hurdat_atl main 243 231 O_____________ hurdat_atl AL091966 22.6000 -95.2000 HU 115 951 4 5 303
1966265N10325 1966 87 NA GM INEZ 1966-10-09 09:00:00 TS 22.6649 -95.4077 main 231 213 P_____________ AL091966 22.6649 -95.4077 HU 112 951 3 4 285
1966265N10325 1966 87 NA GM INEZ 1966-10-09 12:00:00 TS 22.7000 -95.6000 110 951 hurdat_atl main 213 204 O_____________ hurdat_atl AL091966 22.7000 -95.6000 HU 110 951 3 4 290
1966265N10325 1966 87 NA GM INEZ 1966-10-09 15:00:00 TS 22.8000 -95.8000 main 204 184 P_____________ AL091966 22.8000 -95.8000 HU 105 956 3 4 298
1966265N10325 1966 87 NA GM INEZ 1966-10-09 18:00:00 TS 22.9000 -96.0000 100 961 hurdat_atl main 184 163 O_____________ hurdat_atl AL091966 22.9000 -96.0000 HU 100 961 3 4 295
1966265N10325 1966 87 NA GM INEZ 1966-10-09 21:00:00 TS 22.9649 -96.1850 main 163 143 P_____________ AL091966 22.9649 -96.1850 HU 100 960 3 4 285
1966265N10325 1966 87 NA GM INEZ 1966-10-10 00:00:00 TS 23.0000 -96.4000 100 960 hurdat_atl main 143 112 O_____________ hurdat_atl AL091966 23.0000 -96.4000 HU 100 960 3 5 277
1966265N10325 1966 87 NA GM INEZ 1966-10-10 03:00:00 TS 23.0224 -96.6699 main 112 81 P_____________ AL091966 23.0224 -96.6699 HU 100 961 3 6 270
1966265N10325 1966 87 NA GM INEZ 1966-10-10 06:00:00 TS 23.0000 -97.0000 100 962 hurdat_atl main 81 40 O_____________ hurdat_atl AL091966 23.0000 -97.0000 HU 100 962 3 7 262
1966265N10325 1966 87 NA GM INEZ 1966-10-10 09:00:00 TS 22.9301 -97.3925 main 40 0 P_____________ AL091966 22.9301 -97.3925 HU 100 961 3 8 255
1966265N10325 1966 87 NA GM INEZ 1966-10-10 12:00:00 TS 22.8000 -97.8000 100 961 hurdat_atl main 0 0 O_____________ hurdat_atl AL091966 22.8000 -97.8000 L HU 100 961 3 8 245
1966265N10325 1966 87 NA NA INEZ 1966-10-10 15:00:00 TS 22.6074 -98.1576 main 0 0 P_____________ AL091966 22.6074 -98.1576 HU 80 1 8 238
1966265N10325 1966 87 NA NA INEZ 1966-10-10 18:00:00 TS 22.4000 -98.5000 60 hurdat_atl main 0 0 O_____________ hurdat_atl AL091966 22.4000 -98.5000 TS 60 0 7 240
1966265N10325 1966 87 NA NA INEZ 1966-10-10 21:00:00 TS 22.2424 -98.8499 main 0 0 P_____________ AL091966 22.2424 -98.8499 TS 45 0 7 245
1966265N10325 1966 87 NA NA INEZ 1966-10-11 00:00:00 TS 22.1000 -99.2000 30 hurdat_atl main 0 0 O_____________ hurdat_atl AL091966 22.1000 -99.2000 TD 30 -1 7 246
1966265N10325 1966 87 NA NA INEZ 1966-10-11 03:00:00 TS 21.9499 -99.5499 main 0 0 P_____________ AL091966 21.9499 -99.5499 TD 27 -1 7 245
1966265N10325 1966 87 NA NA INEZ 1966-10-11 06:00:00 TS 21.8000 -99.9000 25 hurdat_atl main 0 0 O_____________ hurdat_atl AL091966 21.8000 -99.9000 TD 25 -1 7 245
1966265N10325 1966 87 NA NA INEZ 1966-10-11 09:00:00 TS 21.6501 -100.250 main 0 0 P_____________ AL091966 21.6501 -100.250 TD 22 -1 7 245
1966265N10325 1966 87 NA NA INEZ 1966-10-11 12:00:00 TS 21.5000 -100.600 20 hurdat_atl main 0 O_____________ hurdat_atl AL091966 21.5000 -100.600 TD 20 -1 7 245

IBTrACS Databaseについて

本データベースは、米国NOAAが公開する1842年以降の世界の熱帯低気圧のベストトラックデータアーカイブInternational Best Track Archive for Climate Stewardship (IBTrACS)を、ウェブで閲覧しやすい形式に変換したものです。

最終更新日:2022-10-05